createdAt,value
2017-09-07T00:01:27.710Z,95.90
2017-09-07T00:03:54.098Z,95.90
2017-09-07T00:06:20.479Z,95.90
2017-09-07T00:08:47.138Z,95.90
2017-09-07T00:11:13.510Z,96.00
2017-09-07T00:13:39.858Z,95.80
2017-09-07T00:16:48.835Z,95.40
2017-09-07T00:19:15.963Z,95.30
2017-09-07T00:21:42.305Z,95.30
2017-09-07T00:24:09.033Z,95.10
2017-09-07T00:26:35.393Z,95.30
2017-09-07T00:29:01.756Z,95.70
2017-09-07T00:31:28.176Z,95.40
2017-09-07T00:33:54.535Z,95.40
2017-09-07T00:36:20.927Z,95.20
2017-09-07T00:38:47.298Z,95.10
2017-09-07T00:41:13.700Z,94.90
2017-09-07T00:43:40.098Z,95.00
2017-09-07T00:46:07.223Z,95.10
2017-09-07T00:48:34.396Z,94.90
2017-09-07T00:51:00.802Z,94.80
2017-09-07T00:53:27.190Z,94.70
2017-09-07T00:55:53.973Z,94.80
2017-09-07T00:58:21.090Z,94.80
2017-09-07T01:00:47.499Z,94.70
2017-09-07T01:03:13.856Z,94.90
2017-09-07T01:05:40.231Z,95.10
2017-09-07T01:08:06.662Z,95.20
2017-09-07T01:10:33.815Z,95.40
2017-09-07T01:13:00.191Z,95.30
2017-09-07T01:15:26.565Z,95.30
2017-09-07T01:17:54.037Z,95.50
2017-09-07T01:20:20.462Z,95.50
2017-09-07T01:22:46.891Z,95.60
2017-09-07T01:25:14.073Z,95.10
2017-09-07T01:27:40.433Z,95.10
2017-09-07T01:30:06.862Z,95.10
2017-09-07T01:32:33.215Z,95.00
2017-09-07T01:35:00.319Z,95.10
2017-09-07T01:37:26.704Z,94.80
2017-09-07T01:39:53.070Z,95.00
2017-09-07T01:42:19.436Z,95.00
2017-09-07T01:44:46.183Z,94.40
2017-09-07T01:47:13.380Z,93.90
2017-09-07T01:49:39.743Z,93.80
2017-09-07T01:52:06.145Z,94.00
2017-09-07T01:54:32.506Z,94.20
2017-09-07T01:56:58.907Z,94.30
2017-09-07T01:59:25.277Z,94.50
2017-09-07T02:01:51.657Z,94.90
2017-09-07T02:04:18.070Z,95.10
2017-09-07T02:06:44.489Z,95.30
2017-09-07T02:09:11.593Z,95.60
2017-09-07T02:11:38.357Z,95.60
2017-09-07T02:14:04.693Z,95.60
2017-09-07T02:16:31.816Z,95.70
2017-09-07T02:18:58.173Z,95.70
2017-09-07T02:21:25.263Z,95.90
2017-09-07T02:23:51.639Z,95.90
2017-09-07T02:26:18.003Z,95.90
2017-09-07T02:28:44.709Z,95.60
2017-09-07T02:31:11.819Z,95.90
2017-09-07T02:33:38.160Z,95.90
2017-09-07T02:36:04.550Z,96.00
2017-09-07T02:38:30.876Z,96.20
2017-09-07T02:40:57.245Z,96.30
2017-09-07T02:43:23.604Z,96.40
2017-09-07T02:45:50.710Z,96.40
2017-09-07T02:48:17.084Z,96.40
2017-09-07T02:50:44.191Z,96.70
2017-09-07T02:53:10.579Z,96.30
2017-09-07T02:55:37.269Z,96.20
2017-09-07T02:58:03.704Z,96.20
2017-09-07T03:00:30.061Z,96.30
2017-09-07T03:02:57.153Z,96.40
2017-09-07T03:05:23.503Z,96.40
2017-09-07T03:07:49.891Z,96.50
2017-09-07T03:10:16.266Z,96.70
2017-09-07T03:12:42.615Z,96.60
2017-09-07T03:15:09.704Z,96.80
2017-09-07T03:17:36.407Z,96.70
2017-09-07T03:20:03.530Z,96.60
2017-09-07T03:22:29.885Z,96.60
2017-09-07T03:24:56.990Z,96.70
2017-09-07T03:27:23.335Z,96.70
2017-09-07T03:29:49.679Z,96.60
2017-09-07T03:32:16.093Z,96.80
2017-09-07T03:34:42.453Z,96.70
2017-09-07T03:37:09.598Z,96.80
2017-09-07T03:39:36.743Z,96.90
2017-09-07T03:44:37.278Z,97.00
2017-09-07T03:47:03.623Z,97.00
2017-09-07T03:49:30.701Z,97.10
2017-09-07T03:51:57.100Z,97.00
2017-09-07T03:54:24.212Z,96.90
2017-09-07T03:56:50.581Z,96.90
2017-09-07T03:59:17.659Z,97.00
2017-09-07T04:01:44.038Z,96.90
2017-09-07T04:04:10.391Z,96.90
2017-09-07T04:06:37.823Z,96.80
2017-09-07T04:09:04.167Z,96.70
2017-09-07T04:11:31.281Z,96.50
2017-09-07T04:13:57.646Z,96.40
2017-09-07T04:16:24.012Z,96.40
2017-09-07T04:18:50.392Z,96.50
2017-09-07T04:21:17.509Z,97.30
2017-09-07T04:23:43.902Z,97.30
2017-09-07T04:26:10.257Z,97.00
2017-09-07T04:28:36.921Z,96.50
2017-09-07T04:31:03.293Z,96.10
2017-09-07T04:33:29.660Z,95.80
2017-09-07T04:35:56.048Z,95.60
2017-09-07T04:38:23.126Z,95.20
2017-09-07T04:40:49.481Z,95.10
2017-09-07T04:43:15.791Z,95.20
2017-09-07T04:45:42.148Z,95.40
2017-09-07T04:48:08.621Z,95.20
2017-09-07T04:50:34.996Z,96.00
2017-09-07T04:53:01.360Z,95.30
2017-09-07T04:55:28.454Z,94.90
2017-09-07T04:57:54.813Z,94.90
2017-09-07T05:00:21.172Z,94.90
2017-09-07T05:02:47.514Z,95.10
2017-09-07T05:05:13.853Z,95.20
2017-09-07T05:07:40.214Z,94.90
2017-09-07T05:10:06.893Z,95.00
2017-09-07T05:12:33.320Z,95.00
2017-09-07T05:14:59.714Z,95.10
2017-09-07T05:17:26.097Z,95.40
2017-09-07T05:19:52.452Z,95.30
2017-09-07T05:22:18.808Z,95.30
2017-09-07T05:24:45.145Z,95.30
2017-09-07T05:27:11.807Z,95.20
2017-09-07T05:29:38.897Z,95.20
2017-09-07T05:32:06.099Z,95.00
2017-09-07T05:34:33.235Z,95.50
2017-09-07T05:36:59.626Z,95.20
2017-09-07T05:39:26.012Z,95.00
2017-09-07T05:41:52.410Z,94.90
2017-09-07T05:44:18.845Z,94.50
2017-09-07T05:46:45.210Z,94.30
2017-09-07T05:49:12.417Z,94.10
2017-09-07T05:51:39.532Z,94.40
2017-09-07T05:54:06.598Z,94.00
2017-09-07T05:56:32.958Z,94.00
2017-09-07T05:58:59.327Z,93.70
2017-09-07T06:01:25.702Z,93.20
2017-09-07T06:03:52.084Z,92.90
2017-09-07T06:06:18.477Z,92.80
2017-09-07T06:08:44.892Z,92.80
2017-09-07T06:11:11.241Z,92.70
2017-09-07T06:13:37.619Z,92.50
2017-09-07T06:16:03.996Z,91.70
2017-09-07T06:18:30.376Z,91.40
2017-09-07T06:20:56.743Z,91.40
2017-09-07T06:23:23.091Z,91.30
2017-09-07T06:25:49.465Z,91.20
2017-09-07T06:28:15.883Z,90.80
2017-09-07T06:30:42.324Z,90.50
2017-09-07T06:33:09.459Z,90.10
2017-09-07T06:35:35.852Z,89.70
2017-09-07T06:38:02.225Z,89.60
2017-09-07T06:40:28.564Z,90.20
2017-09-07T06:42:54.951Z,90.30
2017-09-07T06:45:22.042Z,90.00
2017-09-07T06:47:48.441Z,89.90
2017-09-07T06:50:15.560Z,90.10
2017-09-07T06:52:41.912Z,90.10
2017-09-07T06:55:08.289Z,90.00
2017-09-07T06:57:34.662Z,90.10
2017-09-07T07:00:01.051Z,90.20
2017-09-07T07:02:27.433Z,89.90
2017-09-07T07:04:54.544Z,89.10
2017-09-07T07:07:21.716Z,89.70
2017-09-07T07:09:48.083Z,89.70
2017-09-07T07:12:14.791Z,89.50
2017-09-07T07:14:41.870Z,87.70
2017-09-07T07:17:08.209Z,87.60
2017-09-07T07:19:34.561Z,88.10
2017-09-07T07:22:00.919Z,89.20
2017-09-07T07:24:27.244Z,88.80
2017-09-07T07:26:53.615Z,88.70
2017-09-07T07:29:20.029Z,89.00
2017-09-07T07:31:46.425Z,88.80
2017-09-07T07:34:12.792Z,87.80
2017-09-07T07:36:39.890Z,89.00
2017-09-07T07:39:06.596Z,89.00
2017-09-07T07:41:32.917Z,88.40
2017-09-07T07:43:59.285Z,87.00
2017-09-07T07:46:25.712Z,87.20
2017-09-07T07:48:52.079Z,86.60
2017-09-07T07:51:19.199Z,87.20
2017-09-07T07:53:45.544Z,87.20
2017-09-07T07:56:11.928Z,87.50
2017-09-07T07:58:38.307Z,85.90
2017-09-07T08:01:04.698Z,85.40
2017-09-07T08:03:31.074Z,86.10
2017-09-07T08:05:57.840Z,87.20
2017-09-07T08:08:24.177Z,88.40
2017-09-07T08:10:50.614Z,89.10
2017-09-07T08:13:16.994Z,89.80
2017-09-07T08:15:43.330Z,89.80
2017-09-07T08:18:09.711Z,89.00
2017-09-07T08:20:36.127Z,89.80
2017-09-07T08:23:02.512Z,90.20
2017-09-07T08:25:28.874Z,90.30
2017-09-07T08:27:55.569Z,90.40
2017-09-07T08:30:21.930Z,90.50
2017-09-07T08:32:48.301Z,90.20
2017-09-07T08:35:14.720Z,90.30
2017-09-07T08:37:41.089Z,90.50
2017-09-07T08:40:07.514Z,90.40
2017-09-07T08:42:33.925Z,90.40
2017-09-07T08:45:00.306Z,90.40
2017-09-07T08:47:27.489Z,90.00
2017-09-07T08:49:54.286Z,90.00
2017-09-07T08:52:20.644Z,90.20
2017-09-07T08:54:47.767Z,87.60
2017-09-07T08:57:14.142Z,87.50
2017-09-07T08:59:40.558Z,87.40
2017-09-07T09:02:06.957Z,86.50
2017-09-07T09:04:34.060Z,86.60
2017-09-07T09:07:00.734Z,86.40
2017-09-07T09:09:27.094Z,87.00
2017-09-07T09:11:53.492Z,87.00
2017-09-07T09:14:19.864Z,86.70
2017-09-07T09:16:46.254Z,85.00
2017-09-07T09:19:12.689Z,83.80
2017-09-07T09:21:39.807Z,81.00
2017-09-07T09:24:06.466Z,80.90
2017-09-07T09:26:39.718Z,81.10
2017-09-07T09:29:06.105Z,80.90
2017-09-07T09:31:32.504Z,80.80
2017-09-07T09:33:58.857Z,80.90
2017-09-07T09:36:25.254Z,80.80
2017-09-07T09:38:51.659Z,79.40
2017-09-07T09:41:18.051Z,77.90
2017-09-07T09:43:45.187Z,77.30
2017-09-07T09:46:11.625Z,76.60
2017-09-07T09:48:38.065Z,77.90
2017-09-07T09:51:04.815Z,79.50
2017-09-07T09:53:31.217Z,79.50
2017-09-07T09:55:58.321Z,76.70
2017-09-07T09:58:24.682Z,76.60
2017-09-07T10:00:51.103Z,77.20
2017-09-07T10:03:17.454Z,75.70
2017-09-07T10:05:43.824Z,73.50
2017-09-07T10:08:10.226Z,74.10
2017-09-07T10:10:37.332Z,75.60
2017-09-07T10:13:10.854Z,75.60
2017-09-07T10:15:37.214Z,75.50
2017-09-07T10:18:03.605Z,75.20
2017-09-07T10:20:29.999Z,75.80
2017-09-07T10:22:56.339Z,75.60
2017-09-07T10:25:22.731Z,76.20
2017-09-07T10:27:49.918Z,76.70
2017-09-07T10:30:16.306Z,76.60
2017-09-07T10:32:42.742Z,76.10
2017-09-07T10:35:09.862Z,73.50
2017-09-07T10:37:36.224Z,73.50
2017-09-07T10:40:03.318Z,72.20
2017-09-07T10:42:29.765Z,72.10
2017-09-07T10:44:56.128Z,70.20
2017-09-07T10:47:22.944Z,67.30
2017-09-07T10:49:49.300Z,64.30
2017-09-07T10:52:15.675Z,62.30
2017-09-07T10:54:42.098Z,61.60
2017-09-07T10:57:08.507Z,59.10
2017-09-07T10:59:34.847Z,58.00
2017-09-07T11:02:01.214Z,58.20
2017-09-07T11:04:27.601Z,58.30
2017-09-07T11:06:53.969Z,57.60
2017-09-07T11:09:20.330Z,57.80
2017-09-07T11:11:46.772Z,58.50
2017-09-07T11:14:13.481Z,58.60
2017-09-07T11:16:39.851Z,58.90
2017-09-07T11:19:06.225Z,59.40
2017-09-07T11:21:32.610Z,59.30
2017-09-07T11:23:58.975Z,58.40
2017-09-07T11:26:25.348Z,59.40
2017-09-07T11:28:51.722Z,59.20
2017-09-07T11:31:18.145Z,60.10
2017-09-07T11:33:44.498Z,60.90
2017-09-07T11:36:10.862Z,60.90
2017-09-07T11:38:37.999Z,61.30
2017-09-07T11:43:37.886Z,62.30
2017-09-07T11:46:04.281Z,62.30
2017-09-07T11:48:30.778Z,62.90
2017-09-07T11:50:57.174Z,63.30
2017-09-07T11:53:23.569Z,64.30
2017-09-07T11:55:50.690Z,65.70
2017-09-07T11:58:17.084Z,65.70
2017-09-07T12:00:43.486Z,66.70
2017-09-07T12:03:10.192Z,67.00
2017-09-07T12:05:36.567Z,66.90
2017-09-07T12:08:02.961Z,67.60
2017-09-07T12:10:29.382Z,68.80
2017-09-07T12:12:55.731Z,69.80
2017-09-07T12:15:22.877Z,70.60
2017-09-07T12:17:49.990Z,70.20
2017-09-07T12:20:16.693Z,70.20
2017-09-07T12:22:43.047Z,70.90
2017-09-07T12:25:09.420Z,71.70
2017-09-07T12:27:36.549Z,75.00
2017-09-07T12:30:02.952Z,75.00
2017-09-07T12:32:29.359Z,76.60
2017-09-07T12:34:55.720Z,77.80
2017-09-07T12:37:22.090Z,78.90
2017-09-07T12:39:49.190Z,81.20
2017-09-07T12:42:15.851Z,81.00
2017-09-07T12:44:42.223Z,82.00
2017-09-07T12:47:08.657Z,84.20
2017-09-07T12:49:35.061Z,85.50
2017-09-07T12:52:02.161Z,88.50
2017-09-07T12:54:28.541Z,88.40
2017-09-07T12:56:55.641Z,90.30
2017-09-07T12:59:22.008Z,90.30
2017-09-07T13:01:48.395Z,89.70
2017-09-07T13:04:15.043Z,89.30
2017-09-07T13:06:41.419Z,89.40
2017-09-07T13:09:08.519Z,87.10
2017-09-07T13:11:34.921Z,87.10
2017-09-07T13:14:01.300Z,86.60
2017-09-07T13:16:28.414Z,81.50
2017-09-07T13:18:54.756Z,81.50
2017-09-07T13:21:21.101Z,80.60
2017-09-07T13:23:48.194Z,77.00
2017-09-07T13:26:14.917Z,77.20
2017-09-07T13:28:41.309Z,77.10
2017-09-07T13:31:07.671Z,76.60
2017-09-07T13:33:34.030Z,78.80
2017-09-07T13:36:00.390Z,76.20
2017-09-07T13:38:27.560Z,70.40
2017-09-07T13:40:53.933Z,70.30
2017-09-07T13:43:20.290Z,69.20
2017-09-07T13:45:46.683Z,67.10
2017-09-07T13:48:13.499Z,65.80
2017-09-07T13:50:39.858Z,65.80
2017-09-07T13:53:06.190Z,66.40
2017-09-07T13:55:32.587Z,66.80
2017-09-07T13:57:59.697Z,66.40
2017-09-07T14:00:26.092Z,66.30
2017-09-07T14:02:52.446Z,67.50
2017-09-07T14:05:18.835Z,67.60
2017-09-07T14:07:45.943Z,65.20
2017-09-07T14:10:12.325Z,65.20
2017-09-07T14:12:39.393Z,60.70
2017-09-07T14:15:06.085Z,60.70
2017-09-07T14:17:33.197Z,57.40
2017-09-07T14:19:59.549Z,57.20
2017-09-07T14:22:25.922Z,56.10
2017-09-07T14:24:52.367Z,55.50
2017-09-07T14:27:18.753Z,53.50
2017-09-07T14:29:45.112Z,54.20
2017-09-07T14:32:11.489Z,54.40
2017-09-07T14:34:37.827Z,51.80
2017-09-07T14:37:04.509Z,53.70
2017-09-07T14:39:30.883Z,56.10
2017-09-07T14:41:57.325Z,58.00
2017-09-07T14:44:23.747Z,59.20
2017-09-07T14:46:50.115Z,60.00
2017-09-07T14:49:17.270Z,62.60
2017-09-07T14:51:43.707Z,62.60
2017-09-07T14:54:10.088Z,62.20
2017-09-07T14:56:36.480Z,61.90
2017-09-07T14:59:03.274Z,61.30
2017-09-07T15:01:29.598Z,60.90
2017-09-07T15:03:56.011Z,59.80
2017-09-07T15:06:22.404Z,59.20
2017-09-07T15:08:48.801Z,57.50
2017-09-07T15:11:15.926Z,56.90
2017-09-07T15:13:42.290Z,56.90
2017-09-07T15:16:08.657Z,56.90
2017-09-07T15:18:35.025Z,58.40
2017-09-07T15:21:01.774Z,60.20
2017-09-07T15:23:28.150Z,61.80
2017-09-07T15:25:54.526Z,63.60
2017-09-07T15:28:20.826Z,64.30
2017-09-07T15:30:47.247Z,62.30
2017-09-07T15:33:13.618Z,60.70
2017-09-07T15:35:40.020Z,59.50
2017-09-07T15:38:06.392Z,59.10
2017-09-07T15:40:33.425Z,56.30
2017-09-07T15:43:00.138Z,56.30
2017-09-07T15:45:26.501Z,55.70
2017-09-07T15:47:53.677Z,55.10
2017-09-07T15:50:20.055Z,55.10
2017-09-07T15:52:46.479Z,55.70
2017-09-07T15:55:12.909Z,54.50
2017-09-07T15:57:39.339Z,53.50
2017-09-07T16:00:05.764Z,52.90
2017-09-07T16:02:32.141Z,53.10
2017-09-07T16:04:58.806Z,52.80
2017-09-07T16:07:25.162Z,54.10
2017-09-07T16:09:51.572Z,54.50
2017-09-07T16:12:17.970Z,54.10
2017-09-07T16:14:44.347Z,53.40
2017-09-07T16:17:10.775Z,53.70
2017-09-07T16:19:37.193Z,53.90
2017-09-07T16:22:03.654Z,53.50
2017-09-07T16:24:36.972Z,53.70
2017-09-07T16:27:03.286Z,54.30
2017-09-07T16:32:02.912Z,54.60
2017-09-07T16:34:30.042Z,55.80
2017-09-07T16:36:56.405Z,55.80
2017-09-07T16:39:23.542Z,55.40
2017-09-07T16:41:50.274Z,55.40
2017-09-07T16:44:16.663Z,56.00
2017-09-07T16:46:43.041Z,56.60
2017-09-07T16:49:09.515Z,57.70
2017-09-07T16:51:35.892Z,58.60
2017-09-07T16:54:02.312Z,60.00
2017-09-07T16:56:28.695Z,61.30
2017-09-07T16:58:55.080Z,62.60
2017-09-07T17:01:21.462Z,64.00
2017-09-07T17:03:47.894Z,65.50
2017-09-07T17:06:14.320Z,67.10
2017-09-07T17:08:40.714Z,68.30
2017-09-07T17:11:07.080Z,69.20
2017-09-07T17:13:33.779Z,70.10
2017-09-07T17:16:00.907Z,71.00
2017-09-07T17:18:27.301Z,71.00
2017-09-07T17:20:53.725Z,71.50
2017-09-07T17:23:20.106Z,72.20
2017-09-07T17:25:46.540Z,72.90
2017-09-07T17:28:12.924Z,73.80
2017-09-07T17:30:39.347Z,74.50
2017-09-07T17:33:05.775Z,75.60
2017-09-07T17:35:32.160Z,76.20
2017-09-07T17:37:58.580Z,77.10
2017-09-07T17:40:25.363Z,78.00
2017-09-07T17:42:51.758Z,78.90
2017-09-07T17:45:18.220Z,80.10
2017-09-07T17:47:45.461Z,81.90
2017-09-07T17:50:11.911Z,81.70
2017-09-07T17:52:39.130Z,82.50
2017-09-07T17:55:05.572Z,82.30
2017-09-07T17:57:31.951Z,82.80
2017-09-07T17:59:58.406Z,83.20
2017-09-07T18:02:25.577Z,84.50
2017-09-07T18:04:52.756Z,85.80
2017-09-07T18:07:19.648Z,85.20
2017-09-07T18:09:46.880Z,87.30
2017-09-07T18:12:13.318Z,87.20
2017-09-07T18:14:39.803Z,88.30
2017-09-07T18:17:07.069Z,90.00
2017-09-07T18:19:33.568Z,90.00
2017-09-07T18:21:59.972Z,90.20
2017-09-07T18:24:26.472Z,90.40
2017-09-07T18:26:52.961Z,90.50
2017-09-07T18:29:19.740Z,90.80
2017-09-07T18:31:46.231Z,90.90
2017-09-07T18:34:12.686Z,91.10
2017-09-07T18:36:39.213Z,91.30
2017-09-07T18:39:05.752Z,91.50
2017-09-07T18:41:32.236Z,91.90
2017-09-07T18:43:58.734Z,91.70
2017-09-07T18:46:25.296Z,91.80
2017-09-07T18:48:51.930Z,91.80
2017-09-07T18:51:18.529Z,91.90
2017-09-07T18:53:45.060Z,92.00
2017-09-07T18:56:11.914Z,92.00
2017-09-07T18:58:38.368Z,92.30
2017-09-07T19:01:04.913Z,92.40
2017-09-07T19:03:32.173Z,93.00
2017-09-07T19:05:58.648Z,92.60
2017-09-07T19:08:25.167Z,92.80
2017-09-07T19:10:51.709Z,92.90
2017-09-07T19:13:18.561Z,93.20
2017-09-07T19:15:45.070Z,93.40
2017-09-07T19:18:12.279Z,93.70
2017-09-07T19:20:38.777Z,93.70
2017-09-07T19:23:05.303Z,93.90
2017-09-07T19:25:31.790Z,94.00
2017-09-07T19:27:58.330Z,94.10
2017-09-07T19:30:24.912Z,94.20
2017-09-07T19:32:51.474Z,94.40
2017-09-07T19:35:18.433Z,94.50
2017-09-07T19:37:44.934Z,94.50
2017-09-07T19:40:11.444Z,94.60
2017-09-07T19:42:38.002Z,94.70
2017-09-07T19:45:04.477Z,94.80
2017-09-07T19:47:31.088Z,94.80
2017-09-07T19:49:57.542Z,94.80
2017-09-07T19:52:24.040Z,94.70
2017-09-07T19:54:50.511Z,94.70
2017-09-07T19:57:17.288Z,94.70
2017-09-07T19:59:43.771Z,94.70
2017-09-07T20:02:10.250Z,94.70
2017-09-07T20:04:36.695Z,94.70
2017-09-07T20:07:03.192Z,94.80
2017-09-07T20:09:30.559Z,94.90
2017-09-07T20:11:57.800Z,94.90
2017-09-07T20:14:25.037Z,95.00
2017-09-07T20:16:52.199Z,95.20
2017-09-07T20:19:19.431Z,95.00
2017-09-07T20:21:45.891Z,95.00
2017-09-07T20:24:12.749Z,94.90
2017-09-07T20:26:39.217Z,95.00
2017-09-07T20:29:05.660Z,95.10
2017-09-07T20:31:32.132Z,95.20
2017-09-07T20:33:59.361Z,95.30
2017-09-07T20:36:25.822Z,95.30
2017-09-07T20:38:52.280Z,95.40
2017-09-07T20:41:18.751Z,95.40
2017-09-07T20:43:45.173Z,95.50
2017-09-07T20:46:11.911Z,95.70
2017-09-07T20:48:38.475Z,95.70
2017-09-07T20:51:04.875Z,95.70
2017-09-07T20:53:31.308Z,95.70
2017-09-07T20:55:57.712Z,95.80
2017-09-07T20:58:24.184Z,95.80
2017-09-07T21:00:51.390Z,96.20
2017-09-07T21:03:17.842Z,95.90
2017-09-07T21:05:44.236Z,96.00
2017-09-07T21:08:10.718Z,95.90
2017-09-07T21:10:37.119Z,95.90
2017-09-07T21:13:03.782Z,95.80
2017-09-07T21:15:30.207Z,95.80
2017-09-07T21:17:57.411Z,95.60
2017-09-07T21:20:23.840Z,95.60
2017-09-07T21:22:50.264Z,95.60
2017-09-07T21:25:16.686Z,95.60
2017-09-07T21:27:43.094Z,95.60
2017-09-07T21:30:10.278Z,95.70
2017-09-07T21:32:36.681Z,95.70
2017-09-07T21:35:03.828Z,95.80
2017-09-07T21:37:31.007Z,95.80
2017-09-07T21:39:57.371Z,95.80
2017-09-07T21:42:23.757Z,95.80
2017-09-07T21:44:50.101Z,95.80
2017-09-07T21:47:16.547Z,95.80
2017-09-07T21:49:42.978Z,95.80
2017-09-07T21:52:09.671Z,95.80
2017-09-07T21:54:36.763Z,95.90
2017-09-07T21:57:03.858Z,96.00
2017-09-07T21:59:30.228Z,95.90
2017-09-07T22:01:56.592Z,96.10
2017-09-07T22:04:23.014Z,96.20
2017-09-07T22:06:49.376Z,96.30
2017-09-07T22:09:16.496Z,96.70
2017-09-07T22:11:42.885Z,96.40
2017-09-07T22:14:09.516Z,96.40
2017-09-07T22:16:35.866Z,96.30
2017-09-07T22:19:02.259Z,96.20
2017-09-07T22:21:29.372Z,96.20
2017-09-07T22:23:55.729Z,96.20
2017-09-07T22:26:22.851Z,96.10
2017-09-07T22:28:49.258Z,96.10
2017-09-07T22:31:15.627Z,96.10
2017-09-07T22:33:42.015Z,96.00
2017-09-07T22:36:08.390Z,96.00
2017-09-07T22:38:34.782Z,96.10
2017-09-07T22:41:01.442Z,96.20
2017-09-07T22:43:27.826Z,96.20
2017-09-07T22:45:54.243Z,96.30
2017-09-07T22:48:20.687Z,96.40
2017-09-07T22:50:47.049Z,96.90
2017-09-07T22:53:13.450Z,96.80
2017-09-07T22:55:39.813Z,96.90
2017-09-07T22:58:06.189Z,97.00
2017-09-07T23:00:32.557Z,97.00
2017-09-07T23:02:59.962Z,97.00
2017-09-07T23:05:27.063Z,97.10
2017-09-07T23:07:53.473Z,97.10
2017-09-07T23:10:19.864Z,97.20
2017-09-07T23:12:46.247Z,97.20
2017-09-07T23:15:12.594Z,97.20
2017-09-07T23:17:38.948Z,97.20
2017-09-07T23:20:05.299Z,97.20
2017-09-07T23:22:32.365Z,97.10
2017-09-07T23:24:59.044Z,97.10
2017-09-07T23:27:25.406Z,97.10
2017-09-07T23:29:52.503Z,97.20
2017-09-07T23:32:18.928Z,97.10
2017-09-07T23:34:45.323Z,97.20
2017-09-07T23:37:11.703Z,97.20
2017-09-07T23:39:38.128Z,97.20
2017-09-07T23:42:04.472Z,97.20
2017-09-07T23:44:30.839Z,97.20
2017-09-07T23:46:58.267Z,97.20
2017-09-07T23:49:26.085Z,97.10
2017-09-07T23:51:52.502Z,97.10
2017-09-07T23:54:18.879Z,97.10
2017-09-07T23:56:45.278Z,97.00
2017-09-07T23:59:11.655Z,97.10
